This is the latest recevied weather packets stored in our database for station/object IW1CBG-3. If no packets are shown the sender has not sent any weather packets the latest 10 day(s).
| Time | Temp. | Humidity | Pressure | Rain* | Wind** | Luminosity | Snow |
|---|---|---|---|---|---|---|---|
| 1777492239 | 12.22° C | 86% | 1028.3 hPa | 0 mm | - | - | - |
| 1777491639 | 12.22° C | 86% | 1028.3 hPa | 0 mm | - | - | - |
| 1777491038 | 12.22° C | 87% | 1028.4 hPa | 0 mm | - | - | - |
| 1777490437 | 12.22° C | 86% | 1028.1 hPa | 0 mm | - | - | - |
| 1777489838 | 12.78° C | 85% | 1027.8 hPa | 0 mm | - | - | - |
| 1777489239 | 12.78° C | 83% | 1027.7 hPa | 0 mm | - | - | - |
| 1777488638 | 13.33° C | 83% | 1027.5 hPa | 0 mm | - | - | - |
| 1777488037 | 13.33° C | 81% | 1027.2 hPa | 0 mm | - | - | - |
| 1777487438 | 13.89° C | 80% | 1027 hPa | 0 mm | - | - | - |
| 1777486837 | 13.89° C | 80% | 1026.7 hPa | 0 mm | - | - | - |
| 1777486238 | 15° C | 78% | 1026.5 hPa | 0 mm | - | - | - |
| 1777485637 | 15° C | 76% | 1026.5 hPa | 0 mm | - | - | - |
| 1777485038 | 16.11° C | 72% | 1025.7 hPa | 0 mm | - | - | - |
| 1777484437 | 17.22° C | 66% | 1025.2 hPa | 0 mm | - | - | - |
| 1777483837 | 17.22° C | 66% | 1025.2 hPa | 0 mm | - | - | - |
| 1777483238 | 17.78° C | 64% | 1025.1 hPa | 0 mm | - | - | - |
| 1777482637 | 17.78° C | 64% | 1025 hPa | 0 mm | - | - | - |
| 1777482039 | 18.33° C | 61% | 1024.7 hPa | 0 mm | - | - | - |
| 1777481439 | 18.89° C | 59% | 1024.7 hPa | 0 mm | - | - | - |
| 1777480838 | 19.44° C | 57% | 1024.5 hPa | 0 mm | - | - | - |
| 1777480238 | 19.44° C | 56% | 1024.4 hPa | 0 mm | - | - | - |
| 1777479638 | 20° C | 55% | 1024.4 hPa | 0 mm | - | - | - |
| 1777479038 | 18.89° C | 56% | 1024.7 hPa | 0 mm | - | - | - |
| 1777478438 | 18.89° C | 55% | 1024.6 hPa | 0 mm | - | - | - |
| 1777477839 | 18.89° C | 55% | 1024.7 hPa | 0 mm | - | - | - |
* Rain latest hour (hover to see other rain measurements)
** Current wind speed in m/s (hover to see current wind gust speed)